Time;durP1;ratioP1;P1;durP2;ratioP2;P2;SDS_P1;SDS_P2;PMS_P1;PMS_P2;Temp;Humidity;BMP_temperature;BMP_pressure;BME280_temperature;BME280_humidity;BME280_pressure;Samples;Min_cycle;Max_cycle;Signal;HPM_P1;HPM_P2
2022/09/28 08:38:31;;;;;;;;;;;12.00;99.90;;;;;;6086925;23;19960;31
2022/09/28 08:41:15;;;;;;;;;;;12.00;99.90;;;;;;4921477;29;20018;-79
2022/09/28 08:43:44;;;;;;;;;;;12.10;99.90;;;;;;4911284;29;19907;-81
2022/09/28 08:48:47;;;;;;;;;;;12.10;99.90;;;;;;4981242;28;19921;-79
2022/09/28 08:51:20;;;;;;;;;;;12.10;99.90;;;;;;4969377;28;19894;-81
2022/09/28 09:30:25;;;;;;;;;;;12.60;99.90;;;;;;5723187;23;1162353;-80
2022/09/28 09:32:54;;;;;;;;;;;12.50;99.90;;;;;;4981596;28;20004;-80
2022/09/28 09:35:26;;;;;;;;;;;12.50;99.90;;;;;;4981862;28;19906;-79
2022/09/28 10:02:27;;;;;;;;;;;13.60;99.90;;;;;;5037281;23;20008;-86
2022/09/28 10:04:56;;;;;;;;;;;14.00;99.90;;;;;;5006558;28;19976;-86
2022/09/28 10:07:43;;;;;;;;;;;14.10;99.90;;;;;;4988094;23;19946;-87
2022/09/28 10:10:29;;;;;;;;;;;14.20;99.90;;;;;;4977126;28;19910;-87
2022/09/28 10:12:55;;;;;;;;;;;14.30;99.90;;;;;;4965851;28;19909;-83
2022/09/28 10:15:26;;;;;;;;;;;14.40;99.90;;;;;;5014622;23;19928;-82
2022/09/28 11:09:49;;;;;;;;;;;13.70;99.90;;;;;;5856485;23;19905;-80
2022/09/28 11:28:37;;;;;;;;;;;14.40;99.90;;;;;;5029220;23;20266;-88
2022/09/28 11:34:30;;;;;;;;;;;14.80;99.90;;;;;;5482183;23;19922;-86
2022/09/28 11:37:02;;;;;;;;;;;14.90;99.90;;;;;;4931259;28;20369;-90
2022/09/28 11:45:35;;;;;;;;;;;15.10;99.90;;;;;;5003106;28;19917;-88
2022/09/28 11:48:03;;;;;;;;;;;15.20;99.90;;;;;;4980901;28;19913;-89
2022/09/28 11:50:56;;;;;;;;;;;15.30;99.90;;;;;;4980338;28;19905;-88
2022/09/28 11:53:26;;;;;;;;;;;15.30;99.90;;;;;;4980994;28;20250;-89
2022/09/28 11:55:54;;;;;;;;;;;15.30;99.90;;;;;;4988101;28;19906;-81
2022/09/28 11:58:31;;;;;;;;;;;15.10;99.90;;;;;;5013608;28;19909;-82
2022/09/28 12:01:03;;;;;;;;;;;15.00;99.90;;;;;;4992913;28;19993;-80
2022/09/28 12:03:35;;;;;;;;;;;15.00;99.90;;;;;;5009316;28;19913;-80
2022/09/28 12:11:12;;;;;;;;;;;14.70;99.90;;;;;;5019095;23;19906;-81
2022/09/28 12:13:41;;;;;;;;;;;14.70;99.90;;;;;;4976008;28;19977;-88
2022/09/28 12:16:43;;;;;;;;;;;14.70;99.90;;;;;;4974873;28;19977;-83
2022/09/28 12:19:19;;;;;;;;;;;14.70;99.90;;;;;;4971162;28;19910;-87
2022/09/28 12:21:45;;;;;;;;;;;14.70;99.90;;;;;;4969043;28;19941;-82
2022/09/28 12:24:29;;;;;;;;;;;14.80;99.90;;;;;;4987198;28;19921;-87
2022/09/28 12:27:16;;;;;;;;;;;14.70;99.90;;;;;;4965008;28;19922;-86
2022/09/28 12:29:49;;;;;;;;;;;14.80;99.90;;;;;;4978281;28;19921;-88
2022/09/28 12:32:34;;;;;;;;;;;15.00;99.90;;;;;;4977777;28;19906;-89
2022/09/28 12:35:00;;;;;;;;;;;15.00;99.90;;;;;;4960629;28;20049;-85
2022/09/28 12:37:31;;;;;;;;;;;15.10;99.90;;;;;;4978371;28;19913;-87
2022/09/28 12:40:00;;;;;;;;;;;15.20;99.90;;;;;;4976965;28;20357;-85
2022/09/28 12:42:27;;;;;;;;;;;;;;;;;;4977912;28;20001;-86
2022/09/28 12:44:55;;;;;;;;;;;15.40;99.90;;;;;;4959826;28;19906;-86
2022/09/28 12:47:49;;;;;;;;;;;15.40;99.90;;;;;;4960264;28;19929;-88
2022/09/28 12:50:15;;;;;;;;;;;15.40;99.90;;;;;;4944618;28;19992;-88
2022/09/28 12:52:40;;;;;;;;;;;15.20;99.90;;;;;;4960164;28;20380;-89
2022/09/28 12:55:15;;;;;;;;;;;15.20;99.90;;;;;;4960139;28;19906;-88
2022/09/28 12:57:57;;;;;;;;;;;15.20;99.90;;;;;;4959805;28;19906;-86
2022/09/28 13:00:24;;;;;;;;;;;15.20;99.90;;;;;;4959838;28;20001;-87
2022/09/28 13:03:10;;;;;;;;;;;15.40;99.90;;;;;;4976700;28;19906;-84
2022/09/28 13:05:58;;;;;;;;;;;15.50;99.90;;;;;;4959570;28;19933;-86
2022/09/28 13:08:47;;;;;;;;;;;15.60;99.90;;;;;;4976726;28;19921;-88
2022/09/28 13:11:14;;;;;;;;;;;15.60;99.90;;;;;;4949362;28;19922;-88
2022/09/28 13:14:00;;;;;;;;;;;15.60;99.90;;;;;;4976843;28;20375;-86
2022/09/28 13:16:30;;;;;;;;;;;15.60;99.90;;;;;;4959526;28;19906;-87
2022/09/28 13:19:00;;;;;;;;;;;15.50;99.90;;;;;;4977183;28;19985;-87
2022/09/28 13:21:27;;;;;;;;;;;15.50;99.90;;;;;;4977036;28;20270;-88
2022/09/28 13:23:54;;;;;;;;;;;15.50;99.90;;;;;;4976714;28;20265;-87
2022/09/28 13:26:28;;;;;;;;;;;15.40;99.90;;;;;;4959729;28;20000;-88
2022/09/28 13:29:02;;;;;;;;;;;15.30;99.90;;;;;;4976512;28;19913;-86
2022/09/28 13:31:30;;;;;;;;;;;15.30;99.90;;;;;;4959625;28;19906;-88
2022/09/28 13:33:57;;;;;;;;;;;15.20;99.90;;;;;;4959545;28;19949;-88
2022/09/28 13:36:26;;;;;;;;;;;15.20;99.90;;;;;;4975080;28;19929;-87
2022/09/28 13:38:52;;;;;;;;;;;15.30;99.90;;;;;;4957910;28;19928;-86
2022/09/28 13:41:27;;;;;;;;;;;15.30;99.90;;;;;;4958385;28;19906;-88
2022/09/28 13:44:02;;;;;;;;;;;15.30;99.90;;;;;;4958692;28;19906;-87
2022/09/28 13:46:52;;;;;;;;;;;15.30;99.90;;;;;;4959393;28;20063;-88
2022/09/28 13:49:35;;;;;;;;;;;15.40;99.90;;;;;;4959100;28;19953;-87
2022/09/28 13:52:05;;;;;;;;;;;15.40;99.90;;;;;;4959128;28;19914;-87
2022/09/28 13:54:35;;;;;;;;;;;15.40;99.90;;;;;;4970708;28;19906;-91
2022/09/28 13:57:03;;;;;;;;;;;15.40;99.90;;;;;;4947607;28;19965;-88
2022/09/28 13:59:29;;;;;;;;;;;15.30;99.90;;;;;;4956269;29;19913;-85
2022/09/28 14:02:14;;;;;;;;;;;15.40;99.90;;;;;;4956155;29;19907;-85
2022/09/28 14:04:55;;;;;;;;;;;15.40;99.90;;;;;;4939292;29;19907;-85
2022/09/28 14:07:25;;;;;;;;;;;15.50;99.90;;;;;;4939332;29;19938;-86
2022/09/28 14:10:06;;;;;;;;;;;15.50;99.90;;;;;;4939493;29;20005;-85
2022/09/28 14:12:32;;;;;;;;;;;15.60;99.90;;;;;;4938849;29;19914;-85
2022/09/28 14:14:58;;;;;;;;;;;15.70;99.90;;;;;;4939038;29;19962;-92
2022/09/28 14:17:23;;;;;;;;;;;15.70;99.90;;;;;;4956320;29;19918;-91
2022/09/28 14:19:51;;;;;;;;;;;15.80;99.90;;;;;;4938563;29;19906;-83
2022/09/28 14:22:17;;;;;;;;;;;15.80;99.90;;;;;;4938784;29;19906;-92
2022/09/28 14:24:48;;;;;;;;;;;15.90;99.90;;;;;;4938227;29;20001;-85
2022/09/28 14:27:17;;;;;;;;;;;15.90;99.90;;;;;;4939217;29;20350;-82
2022/09/28 14:29:43;;;;;;;;;;;16.00;99.90;;;;;;4958894;28;19910;-85
2022/09/28 14:32:08;;;;;;;;;;;16.00;99.90;;;;;;4949478;28;19910;-84
2022/09/28 14:34:36;;;;;;;;;;;16.00;99.90;;;;;;4954539;29;19910;-80
2022/09/28 14:42:31;;;;;;;;;;;16.00;99.90;;;;;;4955432;29;20360;-83
2022/09/28 14:45:05;;;;;;;;;;;16.00;99.90;;;;;;4937178;29;19906;-82
2022/09/28 14:47:40;;;;;;;;;;;15.90;99.90;;;;;;4938609;29;19914;-86
2022/09/28 14:50:23;;;;;;;;;;;16.20;99.90;;;;;;4939502;29;19957;-82
2022/09/28 14:53:15;;;;;;;;;;;16.10;99.90;;;;;;4939094;29;19917;-85
2022/09/28 14:55:53;;;;;;;;;;;16.10;99.90;;;;;;4935569;29;20002;-85
2022/09/28 14:58:21;;;;;;;;;;;15.90;99.90;;;;;;4938620;29;19985;-85
2022/09/28 15:00:48;;;;;;;;;;;15.80;99.90;;;;;;4939004;28;19910;-86
2022/09/28 15:03:14;;;;;;;;;;;15.70;99.90;;;;;;4951893;28;19964;-85
2022/09/28 15:05:48;;;;;;;;;;;15.50;99.90;;;;;;4962481;28;19906;-86
2022/09/28 15:08:14;;;;;;;;;;;15.50;99.90;;;;;;4962294;28;19914;-86
2022/09/28 15:10:44;;;;;;;;;;;15.40;99.90;;;;;;4977528;28;19928;-87
2022/09/28 15:13:26;;;;;;;;;;;15.30;99.90;;;;;;4981028;28;20136;-85
2022/09/28 15:16:12;;;;;;;;;;;15.20;99.90;;;;;;4981183;28;20311;-85
2022/09/28 15:18:56;;;;;;;;;;;15.10;99.90;;;;;;4979662;28;20004;-85
2022/09/28 15:21:22;;;;;;;;;;;15.00;99.90;;;;;;4980298;28;19952;-84
2022/09/28 15:23:48;;;;;;;;;;;15.00;99.90;;;;;;4997961;28;19906;-85
2022/09/28 15:26:26;;;;;;;;;;;15.00;99.90;;;;;;4980564;28;19992;-87
2022/09/28 15:28:52;;;;;;;;;;;14.90;99.90;;;;;;4980477;28;19909;-85
2022/09/28 15:31:19;;;;;;;;;;;14.90;99.90;;;;;;4997482;28;19945;-85
2022/09/28 15:36:30;;;;;;;;;;;14.80;99.90;;;;;;4998123;28;19912;-85
2022/09/28 15:38:56;;;;;;;;;;;14.70;99.90;;;;;;4980364;28;19913;-78
2022/09/28 15:41:23;;;;;;;;;;;14.60;99.90;;;;;;4999978;28;19913;-78
2022/09/28 15:44:06;;;;;;;;;;;14.60;99.90;;;;;;4997933;28;19906;-84
2022/09/28 15:46:31;;;;;;;;;;;14.50;99.90;;;;;;4997045;28;19913;-84
2022/09/28 15:48:58;;;;;;;;;;;14.50;99.90;;;;;;4979571;28;19906;-84
2022/09/28 15:51:24;;;;;;;;;;;14.50;99.90;;;;;;4979572;28;19979;-84
2022/09/28 15:53:57;;;;;;;;;;;14.50;99.90;;;;;;4979813;28;19906;-83
2022/09/28 15:56:23;;;;;;;;;;;14.40;99.90;;;;;;4980352;28;19910;-84
2022/09/28 15:59:07;;;;;;;;;;;14.40;99.90;;;;;;4997475;28;20337;-84
2022/09/28 16:01:36;;;;;;;;;;;14.30;99.90;;;;;;4979582;28;19909;-86
2022/09/28 16:04:21;;;;;;;;;;;14.20;99.90;;;;;;4979833;28;19913;-82
2022/09/28 16:07:10;;;;;;;;;;;14.20;99.90;;;;;;4996886;28;19913;-83
2022/09/28 16:09:55;;;;;;;;;;;14.20;99.90;;;;;;4969418;28;20288;-83
2022/09/28 16:12:21;;;;;;;;;;;14.10;99.90;;;;;;4980196;28;19910;-87
2022/09/28 16:14:48;;;;;;;;;;;14.10;99.90;;;;;;4978523;28;20293;-87
2022/09/28 16:17:16;;;;;;;;;;;14.00;99.90;;;;;;4977287;28;19929;-86
2022/09/28 16:19:42;;;;;;;;;;;14.00;99.90;;;;;;4960498;28;19906;-85
2022/09/28 16:22:15;;;;;;;;;;;14.00;99.90;;;;;;4960636;28;19902;-87
2022/09/28 16:24:41;;;;;;;;;;;13.90;99.90;;;;;;4977706;28;19941;-83
2022/09/28 16:27:07;;;;;;;;;;;13.90;99.90;;;;;;4977272;28;19968;-85
2022/09/28 16:29:39;;;;;;;;;;;13.90;99.90;;;;;;4960264;28;20356;-84
2022/09/28 16:32:26;;;;;;;;;;;13.90;99.90;;;;;;4960073;28;19917;-83
2022/09/28 16:37:57;;;;;;;;;;;13.80;99.90;;;;;;5000575;28;19921;-83
2022/09/28 16:40:22;;;;;;;;;;;13.70;99.90;;;;;;4969472;28;20004;-83
2022/09/28 16:42:48;;;;;;;;;;;13.70;99.90;;;;;;4982666;28;19894;-81
2022/09/28 16:45:18;;;;;;;;;;;13.60;99.90;;;;;;4984347;28;19905;-82
2022/09/28 16:47:46;;;;;;;;;;;13.60;99.90;;;;;;4975619;28;19953;-79
2022/09/28 16:50:15;;;;;;;;;;;13.60;99.90;;;;;;4987349;28;19976;-84
2022/09/28 16:55:26;;;;;;;;;;;13.50;99.90;;;;;;4989386;28;19897;-85
2022/09/28 16:57:52;;;;;;;;;;;13.50;99.90;;;;;;4998197;28;19894;-84
2022/09/28 17:00:44;;;;;;;;;;;13.50;99.90;;;;;;5007173;23;19956;-85
2022/09/28 17:03:11;;;;;;;;;;;13.50;99.90;;;;;;5024427;23;19905;-83
